createdAt,value
2022-12-14T00:02:51.067Z,69.05
2022-12-14T00:06:34.975Z,69.51
2022-12-14T00:10:19.062Z,69.11
2022-12-14T00:14:03.216Z,68.68
2022-12-14T00:17:46.987Z,69.58
2022-12-14T00:21:30.064Z,69.41
2022-12-14T00:25:12.845Z,69.24
2022-12-14T00:28:57.476Z,69.63
2022-12-14T00:32:40.952Z,69.91
2022-12-14T00:36:23.845Z,70.13
2022-12-14T00:40:08.671Z,69.64
2022-12-14T00:43:51.360Z,69.54
2022-12-14T00:47:40.517Z,69.27
2022-12-14T00:51:23.594Z,69.84
2022-12-14T00:55:07.186Z,69.90
2022-12-14T00:58:53.177Z,69.50
2022-12-14T01:02:37.247Z,70.13
2022-12-14T01:06:21.733Z,69.36
2022-12-14T01:10:04.519Z,70.12
2022-12-14T01:13:49.510Z,70.07
2022-12-14T01:17:32.598Z,70.69
2022-12-14T01:21:18.886Z,70.39
2022-12-14T01:25:01.609Z,69.88
2022-12-14T01:28:45.126Z,69.33
2022-12-14T01:32:27.873Z,69.74
2022-12-14T01:36:13.392Z,69.96
2022-12-14T01:39:57.546Z,69.63
2022-12-14T01:43:47.069Z,69.85
2022-12-14T01:47:43.249Z,69.76
2022-12-14T01:51:26.618Z,69.54
2022-12-14T01:55:13.477Z,70.09
2022-12-14T01:58:57.369Z,69.26
2022-12-14T02:02:43.128Z,69.33
2022-12-14T02:06:28.319Z,69.65
2022-12-14T02:10:12.649Z,69.71
2022-12-14T02:13:55.410Z,70.30
2022-12-14T02:17:38.319Z,70.41
2022-12-14T02:21:24.999Z,70.23
2022-12-14T02:25:22.325Z,70.53
2022-12-14T02:29:26.936Z,69.90
2022-12-14T02:33:22.095Z,69.86
2022-12-14T02:37:08.377Z,70.36
2022-12-14T02:40:58.527Z,69.86
2022-12-14T02:44:48.148Z,69.49
2022-12-14T02:48:35.227Z,69.33
2022-12-14T02:52:23.841Z,69.43
2022-12-14T02:56:11.488Z,69.30
2022-12-14T02:59:57.999Z,69.02
2022-12-14T03:03:40.762Z,68.83
2022-12-14T03:07:36.514Z,69.22
2022-12-14T03:11:22.510Z,69.86
2022-12-14T03:15:08.726Z,69.65
2022-12-14T03:18:53.136Z,69.90
2022-12-14T03:22:40.762Z,69.46
2022-12-14T03:26:27.013Z,70.33
2022-12-14T03:30:14.062Z,69.17
2022-12-14T03:33:58.224Z,69.72
2022-12-14T03:37:43.379Z,69.19
2022-12-14T03:41:30.310Z,69.58
2022-12-14T03:45:19.001Z,70.34
2022-12-14T03:49:08.538Z,70.03
2022-12-14T03:52:56.817Z,70.08
2022-12-14T03:56:48.322Z,70.43
2022-12-14T04:00:44.375Z,69.98
2022-12-14T04:04:31.927Z,70.15
2022-12-14T04:08:21.482Z,70.30
2022-12-14T04:12:24.658Z,70.75
2022-12-14T04:16:30.285Z,70.28
2022-12-14T04:20:19.132Z,69.98
2022-12-14T04:24:18.340Z,69.83
2022-12-14T04:28:05.260Z,70.56
2022-12-14T04:31:52.672Z,69.87
2022-12-14T04:35:39.079Z,69.82
2022-12-14T04:39:25.072Z,69.74
2022-12-14T04:43:12.309Z,69.33
2022-12-14T04:46:57.506Z,70.50
2022-12-14T04:50:43.947Z,70.73
2022-12-14T04:54:29.649Z,69.80
2022-12-14T04:58:14.558Z,70.19
2022-12-14T05:02:06.437Z,70.55
2022-12-14T05:05:57.358Z,69.70
2022-12-14T05:09:42.189Z,70.19
2022-12-14T05:13:28.945Z,70.49
2022-12-14T05:17:13.573Z,71.16
2022-12-14T05:20:56.264Z,71.18
2022-12-14T05:24:38.939Z,70.61
2022-12-14T05:28:21.627Z,71.18
2022-12-14T05:32:04.590Z,70.80
2022-12-14T05:35:48.706Z,70.93
2022-12-14T05:39:31.393Z,70.54
2022-12-14T05:43:14.280Z,71.08
2022-12-14T05:46:56.981Z,70.93
2022-12-14T05:50:39.661Z,71.36
2022-12-14T05:54:23.707Z,70.94
2022-12-14T05:58:06.483Z,71.28
2022-12-14T06:01:50.660Z,71.53
2022-12-14T06:05:33.606Z,71.37
2022-12-14T06:09:17.303Z,71.82
2022-12-14T06:13:01.378Z,71.67
2022-12-14T06:16:45.334Z,71.92
2022-12-14T06:20:28.329Z,72.17
2022-12-14T06:24:11.825Z,72.14
2022-12-14T06:27:55.495Z,71.83
2022-12-14T06:31:39.679Z,71.66
2022-12-14T06:35:25.081Z,71.71
2022-12-14T06:39:09.204Z,71.99
2022-12-14T06:42:51.857Z,73.06
2022-12-14T06:46:35.240Z,72.95
2022-12-14T06:50:19.260Z,73.50
2022-12-14T06:54:02.046Z,73.39
2022-12-14T06:57:44.725Z,73.58
2022-12-14T07:01:28.635Z,74.06
2022-12-14T07:05:11.371Z,73.86
2022-12-14T07:08:56.727Z,74.45
2022-12-14T07:12:39.745Z,74.97
2022-12-14T07:16:25.577Z,74.79
2022-12-14T07:20:09.687Z,75.43
2022-12-14T07:23:53.213Z,75.21
2022-12-14T07:27:37.219Z,74.89
2022-12-14T07:31:21.805Z,74.99
2022-12-14T07:35:05.239Z,75.82
2022-12-14T07:38:49.195Z,75.24
2022-12-14T07:42:31.829Z,75.46
2022-12-14T07:46:17.470Z,75.72
2022-12-14T07:50:00.140Z,76.40
2022-12-14T07:53:43.094Z,75.89
2022-12-14T07:57:25.727Z,75.98
2022-12-14T08:01:11.310Z,75.97
2022-12-14T08:04:55.507Z,76.13
2022-12-14T08:08:38.299Z,76.39
2022-12-14T08:12:21.115Z,75.95
2022-12-14T08:16:04.641Z,76.25
2022-12-14T08:19:47.335Z,76.62
2022-12-14T08:23:32.172Z,76.70
2022-12-14T08:27:15.272Z,76.56
2022-12-14T08:30:58.794Z,75.84
2022-12-14T08:34:41.517Z,76.56
2022-12-14T08:38:24.174Z,76.23
2022-12-14T08:42:08.175Z,76.78
2022-12-14T08:45:50.865Z,76.69
2022-12-14T08:49:33.542Z,75.84
2022-12-14T08:53:16.224Z,76.97
2022-12-14T08:56:58.901Z,79.71
2022-12-14T09:00:45.094Z,82.49
2022-12-14T09:04:27.853Z,81.28
2022-12-14T09:08:10.526Z,80.07
2022-12-14T09:11:53.191Z,78.77
2022-12-14T09:15:35.894Z,78.58
2022-12-14T09:19:19.990Z,78.41
2022-12-14T09:23:02.870Z,78.15
2022-12-14T09:26:47.095Z,78.59
2022-12-14T09:30:29.943Z,77.44
2022-12-14T09:34:12.650Z,77.28
2022-12-14T09:37:56.704Z,77.73
2022-12-14T09:41:50.733Z,77.46
2022-12-14T09:45:35.426Z,77.32
2022-12-14T09:49:26.397Z,77.40
2022-12-14T09:53:14.269Z,78.32
2022-12-14T09:56:59.734Z,78.64
2022-12-14T10:00:52.942Z,78.20
2022-12-14T10:04:47.821Z,79.05
2022-12-14T10:08:35.741Z,78.21
2022-12-14T10:12:32.529Z,78.49
2022-12-14T10:16:24.251Z,78.00
2022-12-14T10:20:15.769Z,77.05
2022-12-14T10:24:02.719Z,76.98
2022-12-14T10:31:58.686Z,79.58
2022-12-14T10:35:49.396Z,78.61
2022-12-14T10:39:41.741Z,79.27
2022-12-14T10:43:33.258Z,79.44
2022-12-14T10:47:21.485Z,79.30
2022-12-14T10:51:07.242Z,79.58
2022-12-14T10:54:54.174Z,79.66
2022-12-14T10:58:36.851Z,79.50
2022-12-14T11:02:21.525Z,79.55
2022-12-14T11:06:08.205Z,79.62
2022-12-14T11:09:52.679Z,79.68
2022-12-14T11:13:35.351Z,79.15
2022-12-14T11:17:30.824Z,79.70
2022-12-14T11:21:16.270Z,79.61
2022-12-14T11:25:00.316Z,79.95
2022-12-14T11:28:50.375Z,79.37
2022-12-14T11:32:33.303Z,79.85
2022-12-14T11:36:25.071Z,79.64
2022-12-14T11:40:20.933Z,80.41
2022-12-14T11:44:06.401Z,80.44
2022-12-14T11:48:15.377Z,79.88
2022-12-14T11:52:03.788Z,79.89
2022-12-14T11:55:51.790Z,80.01
2022-12-14T11:59:39.505Z,78.75
2022-12-14T12:03:25.430Z,79.36
2022-12-14T12:07:14.058Z,80.58
2022-12-14T12:11:02.594Z,81.45
2022-12-14T12:14:45.795Z,82.11
2022-12-14T12:18:33.951Z,81.75
2022-12-14T12:22:17.247Z,81.49
2022-12-14T12:26:04.663Z,81.79
2022-12-14T12:29:49.749Z,81.70
2022-12-14T12:33:36.268Z,81.95
2022-12-14T12:37:26.598Z,82.41
2022-12-14T12:41:19.824Z,82.73
2022-12-14T12:45:06.998Z,82.75
2022-12-14T12:48:51.803Z,83.26
2022-12-14T12:52:38.152Z,83.19
2022-12-14T12:56:24.492Z,83.09
2022-12-14T13:00:08.580Z,83.23
2022-12-14T13:03:53.058Z,83.23
2022-12-14T13:07:39.181Z,83.70
2022-12-14T13:11:26.406Z,83.72
2022-12-14T13:15:17.454Z,83.98
2022-12-14T13:19:32.144Z,83.18
2022-12-14T13:23:43.094Z,83.45
2022-12-14T13:27:52.712Z,83.12
2022-12-14T13:31:39.098Z,82.61
2022-12-14T13:35:34.859Z,83.48
2022-12-14T13:39:31.761Z,84.24
2022-12-14T13:43:36.678Z,86.63
2022-12-14T13:47:22.062Z,87.38
2022-12-14T13:51:09.615Z,87.61
2022-12-14T13:54:52.869Z,88.26
2022-12-14T13:58:40.696Z,88.57
2022-12-14T14:02:40.739Z,89.03
2022-12-14T14:06:35.668Z,89.36
2022-12-14T14:10:30.927Z,89.55
2022-12-14T14:14:22.397Z,89.44
2022-12-14T14:18:15.359Z,89.56
2022-12-14T14:26:27.451Z,88.91
2022-12-14T14:30:36.932Z,89.12
2022-12-14T14:34:24.349Z,88.70
2022-12-14T14:38:12.848Z,88.64
2022-12-14T14:41:55.826Z,88.79
2022-12-14T14:45:41.782Z,89.11
2022-12-14T14:49:27.057Z,88.70
2022-12-14T14:53:26.316Z,88.99
2022-12-14T14:57:35.594Z,89.61
2022-12-14T15:01:26.921Z,90.38
2022-12-14T15:05:41.745Z,90.85
2022-12-14T15:09:22.334Z,91.68
2022-12-14T15:13:07.192Z,91.63
2022-12-14T15:16:51.269Z,91.66
2022-12-14T15:20:33.925Z,92.43
2022-12-14T15:24:16.778Z,92.47
2022-12-14T15:28:05.337Z,93.02
2022-12-14T15:31:59.259Z,93.60
2022-12-14T15:35:42.477Z,93.89
2022-12-14T15:39:33.629Z,93.84
2022-12-14T15:43:18.777Z,93.87
2022-12-14T15:47:02.961Z,94.04
2022-12-14T15:50:46.381Z,94.44
2022-12-14T15:54:29.292Z,97.72
2022-12-14T15:58:17.338Z,99.36
2022-12-14T16:02:07.386Z,99.42
2022-12-14T16:05:50.526Z,98.70
2022-12-14T16:09:35.012Z,97.59
2022-12-14T16:13:21.709Z,97.12
2022-12-14T16:17:05.979Z,97.00
2022-12-14T16:20:57.508Z,96.82
2022-12-14T16:24:54.915Z,97.48
2022-12-14T16:28:38.440Z,97.63
2022-12-14T16:32:23.289Z,97.31
2022-12-14T16:36:08.708Z,98.46
2022-12-14T16:39:52.532Z,100.00
2022-12-14T16:43:37.777Z,100.00
2022-12-14T16:48:04.647Z,100.00
2022-12-14T16:56:04.604Z,100.00
2022-12-14T16:59:48.985Z,100.00
2022-12-14T17:03:34.077Z,100.00
2022-12-14T17:07:17.304Z,100.00
2022-12-14T17:11:00.118Z,100.00
2022-12-14T17:14:49.400Z,100.00
2022-12-14T17:18:36.554Z,100.00
2022-12-14T17:22:22.034Z,100.00
2022-12-14T17:26:04.777Z,100.00
2022-12-14T17:29:47.490Z,100.00
2022-12-14T17:33:31.432Z,100.00
2022-12-14T17:37:18.680Z,100.00
2022-12-14T17:41:01.502Z,100.00
2022-12-14T17:44:46.416Z,100.00
2022-12-14T17:48:29.255Z,100.00
2022-12-14T17:52:19.785Z,100.00
2022-12-14T17:56:02.490Z,100.00
2022-12-14T17:59:47.597Z,100.00
2022-12-14T18:03:32.639Z,100.00
2022-12-14T18:07:15.677Z,100.00
2022-12-14T18:11:01.545Z,100.00
2022-12-14T18:14:45.094Z,100.00
2022-12-14T18:18:29.518Z,100.00
2022-12-14T18:22:12.405Z,100.00
2022-12-14T18:26:05.510Z,100.00
2022-12-14T18:29:48.262Z,100.00
2022-12-14T18:33:31.992Z,100.00
2022-12-14T18:37:17.519Z,100.00
2022-12-14T18:41:05.835Z,100.00
2022-12-14T18:44:48.530Z,100.00
2022-12-14T18:48:31.212Z,100.00
2022-12-14T18:52:13.974Z,100.00
2022-12-14T18:55:56.878Z,100.00
2022-12-14T18:59:42.813Z,100.00
2022-12-14T19:03:26.220Z,100.00
2022-12-14T19:07:08.992Z,100.00
2022-12-14T19:10:52.472Z,100.00
2022-12-14T19:14:35.183Z,100.00
2022-12-14T19:18:19.322Z,100.00
2022-12-14T19:22:04.257Z,100.00
2022-12-14T19:25:47.359Z,100.00
2022-12-14T19:29:30.046Z,100.00
2022-12-14T19:33:13.165Z,100.00
2022-12-14T19:36:57.328Z,100.00
2022-12-14T19:40:40.245Z,100.00
2022-12-14T19:44:23.035Z,100.00
2022-12-14T19:48:11.341Z,100.00
2022-12-14T19:51:57.063Z,100.00
2022-12-14T19:55:39.689Z,100.00
2022-12-14T19:59:22.422Z,100.00
2022-12-14T20:03:05.847Z,100.00
2022-12-14T20:06:48.641Z,100.00
2022-12-14T20:10:32.668Z,100.00
2022-12-14T20:14:15.744Z,100.00
2022-12-14T20:17:58.463Z,100.00
2022-12-14T20:21:41.267Z,100.00
2022-12-14T20:25:24.046Z,100.00
2022-12-14T20:29:08.302Z,100.00
2022-12-14T20:32:53.429Z,100.00
2022-12-14T20:36:36.637Z,100.00
2022-12-14T20:40:19.316Z,100.00
2022-12-14T20:44:03.092Z,100.00
2022-12-14T20:47:47.114Z,100.00
2022-12-14T20:51:31.560Z,100.00
2022-12-14T20:55:14.318Z,100.00
2022-12-14T20:58:57.146Z,100.00
2022-12-14T21:02:40.227Z,100.00
2022-12-14T21:06:24.872Z,100.00
2022-12-14T21:10:08.928Z,100.00
2022-12-14T21:13:51.586Z,100.00
2022-12-14T21:17:34.545Z,100.00
2022-12-14T21:21:17.308Z,100.00
2022-12-14T21:25:04.916Z,100.00
2022-12-14T21:28:48.348Z,100.00
2022-12-14T21:32:31.089Z,100.00
2022-12-14T21:36:14.096Z,100.00
2022-12-14T21:39:57.965Z,100.00
2022-12-14T21:43:42.027Z,100.00
2022-12-14T21:47:26.711Z,99.37
2022-12-14T21:51:11.135Z,100.00
2022-12-14T21:54:53.791Z,100.00
2022-12-14T21:58:35.501Z,100.00
2022-12-14T22:02:21.288Z,100.00
2022-12-14T22:06:05.393Z,99.74
2022-12-14T22:09:49.528Z,98.64
2022-12-14T22:13:33.148Z,99.17
2022-12-14T22:17:16.151Z,97.11
2022-12-14T22:21:04.978Z,96.28
2022-12-14T22:24:49.200Z,97.92
2022-12-14T22:28:31.815Z,98.09
2022-12-14T22:32:14.955Z,96.75
2022-12-14T22:35:58.461Z,96.01
2022-12-14T22:39:42.760Z,95.97
2022-12-14T22:43:29.724Z,97.19
2022-12-14T22:47:14.442Z,97.06
2022-12-14T22:50:59.807Z,97.44
2022-12-14T22:54:43.881Z,98.89
2022-12-14T22:58:33.179Z,99.74
2022-12-14T23:02:16.391Z,98.94
2022-12-14T23:06:02.243Z,99.78
2022-12-14T23:10:07.193Z,99.29
2022-12-14T23:14:08.940Z,98.77
2022-12-14T23:18:09.099Z,98.07
2022-12-14T23:22:09.474Z,97.94
2022-12-14T23:26:11.068Z,96.20
2022-12-14T23:30:11.378Z,94.14
2022-12-14T23:34:11.635Z,93.65
2022-12-14T23:38:14.961Z,93.41
2022-12-14T23:42:16.415Z,92.83
2022-12-14T23:46:16.887Z,91.90
2022-12-14T23:50:17.027Z,92.14
2022-12-14T23:54:17.250Z,91.30
2022-12-14T23:58:18.892Z,91.72
